createdAt,value
2017-12-22T00:04:32.131Z,94.50
2017-12-22T00:10:35.653Z,94.42
2017-12-22T00:16:39.200Z,93.79
2017-12-22T00:22:42.678Z,93.35
2017-12-22T00:28:46.172Z,93.57
2017-12-22T00:34:49.640Z,93.76
2017-12-22T00:40:53.467Z,93.33
2017-12-22T00:46:57.757Z,93.22
2017-12-22T00:53:01.404Z,93.13
2017-12-22T00:59:05.694Z,93.16
2017-12-22T01:05:10.067Z,93.11
2017-12-22T01:11:14.034Z,92.67
2017-12-22T01:17:24.273Z,92.70
2017-12-22T01:23:27.897Z,92.42
2017-12-22T01:29:31.375Z,92.61
2017-12-22T01:35:34.862Z,92.70
2017-12-22T01:41:39.142Z,92.71
2017-12-22T01:47:42.754Z,92.83
2017-12-22T01:53:46.413Z,92.33
2017-12-22T01:59:49.881Z,92.35
2017-12-22T02:05:53.979Z,92.46
2017-12-22T02:11:57.516Z,92.56
2017-12-22T02:18:01.064Z,92.95
2017-12-22T02:24:04.549Z,93.02
2017-12-22T02:30:08.056Z,92.85
2017-12-22T02:36:11.795Z,92.90
2017-12-22T02:42:15.271Z,91.79
2017-12-22T02:48:18.748Z,92.39
2017-12-22T02:54:22.356Z,92.96
2017-12-22T03:00:26.315Z,93.15
2017-12-22T03:06:30.570Z,93.21
2017-12-22T03:12:34.866Z,93.13
2017-12-22T03:18:38.376Z,93.40
2017-12-22T03:24:42.094Z,93.44
2017-12-22T03:30:45.593Z,92.83
2017-12-22T03:36:49.091Z,93.00
2017-12-22T03:42:52.998Z,92.97
2017-12-22T03:48:56.810Z,92.89
2017-12-22T03:55:00.305Z,92.90
2017-12-22T04:01:03.787Z,92.63
2017-12-22T04:07:07.278Z,92.35
2017-12-22T04:13:10.778Z,92.14
2017-12-22T04:19:14.271Z,92.76
2017-12-22T04:25:18.550Z,92.59
2017-12-22T04:31:22.162Z,92.85
2017-12-22T04:37:25.684Z,92.79
2017-12-22T04:43:29.232Z,92.75
2017-12-22T04:49:32.783Z,93.89
2017-12-22T04:55:36.310Z,93.95
2017-12-22T05:01:39.795Z,93.66
2017-12-22T05:07:43.284Z,93.55
2017-12-22T05:13:46.846Z,93.32
2017-12-22T05:19:50.396Z,93.73
2017-12-22T05:25:54.313Z,93.83
2017-12-22T05:31:57.801Z,93.55
2017-12-22T05:38:01.522Z,93.42
2017-12-22T05:44:05.007Z,92.78
2017-12-22T05:50:08.495Z,92.77
2017-12-22T05:56:12.003Z,92.71
2017-12-22T06:02:15.516Z,93.12
2017-12-22T06:08:19.031Z,92.98
2017-12-22T06:14:22.952Z,93.31
2017-12-22T06:20:26.463Z,93.44
2017-12-22T06:26:29.952Z,93.30
2017-12-22T06:32:34.192Z,93.53
2017-12-22T06:38:37.730Z,93.60
2017-12-22T06:44:41.235Z,93.20
2017-12-22T06:50:45.486Z,93.89
2017-12-22T06:56:48.965Z,93.76
2017-12-22T07:02:52.725Z,93.63
2017-12-22T07:08:56.299Z,93.66
2017-12-22T07:14:59.808Z,94.31
2017-12-22T07:21:03.315Z,94.96
2017-12-22T07:27:06.804Z,94.08
2017-12-22T07:33:10.288Z,94.25
2017-12-22T07:39:14.534Z,94.46
2017-12-22T07:45:18.033Z,94.61
2017-12-22T07:51:21.630Z,94.66
2017-12-22T07:57:25.100Z,94.62
2017-12-22T08:03:28.606Z,94.48
2017-12-22T08:09:32.104Z,94.35
2017-12-22T08:15:35.621Z,93.94
2017-12-22T08:21:39.122Z,94.05
2017-12-22T08:27:42.649Z,94.32
2017-12-22T08:33:46.164Z,94.77
2017-12-22T08:39:49.903Z,94.07
2017-12-22T08:45:54.176Z,93.52
2017-12-22T08:51:58.722Z,93.06
2017-12-22T08:58:02.191Z,92.78
2017-12-22T09:04:05.694Z,92.65
2017-12-22T09:10:09.231Z,92.72
2017-12-22T09:16:12.693Z,91.82
2017-12-22T09:22:16.486Z,90.95
2017-12-22T09:28:20.348Z,90.03
2017-12-22T09:34:24.210Z,89.22
2017-12-22T09:40:27.874Z,88.32
2017-12-22T09:46:31.382Z,87.11
2017-12-22T09:52:34.957Z,87.03
2017-12-22T09:58:38.445Z,87.71
2017-12-22T10:04:41.939Z,86.59
2017-12-22T10:10:46.225Z,87.01
2017-12-22T10:16:49.742Z,87.31
2017-12-22T10:22:53.897Z,87.19
2017-12-22T10:28:57.394Z,86.99
2017-12-22T10:35:01.654Z,86.73
2017-12-22T10:41:05.904Z,86.46
2017-12-22T10:47:09.422Z,86.26
2017-12-22T10:53:12.935Z,87.28
2017-12-22T10:59:17.183Z,87.26
2017-12-22T11:05:20.793Z,85.89
2017-12-22T11:11:24.524Z,85.06
2017-12-22T11:17:28.822Z,84.13
2017-12-22T11:23:32.334Z,82.11
2017-12-22T11:29:35.842Z,83.50
2017-12-22T11:35:39.386Z,83.64
2017-12-22T11:41:43.639Z,84.46
2017-12-22T11:47:47.099Z,83.33
2017-12-22T11:53:50.643Z,82.85
2017-12-22T11:59:54.526Z,81.51
2017-12-22T12:05:58.144Z,82.89
2017-12-22T12:12:01.631Z,83.66
2017-12-22T12:18:05.099Z,84.24
2017-12-22T12:24:08.648Z,84.11
2017-12-22T12:30:12.173Z,83.58
2017-12-22T12:36:16.438Z,83.01
2017-12-22T12:42:20.757Z,84.35
2017-12-22T12:48:25.581Z,84.62
2017-12-22T12:54:29.055Z,84.49
2017-12-22T13:00:33.360Z,85.14
2017-12-22T13:06:36.842Z,83.77
2017-12-22T13:12:40.319Z,82.17
2017-12-22T13:18:43.815Z,82.15
2017-12-22T13:24:47.362Z,81.97
2017-12-22T13:30:51.863Z,82.58
2017-12-22T13:36:55.574Z,82.53
2017-12-22T13:42:59.922Z,83.24
2017-12-22T13:49:03.426Z,83.06
2017-12-22T13:55:07.690Z,83.52
2017-12-22T14:01:12.023Z,83.50
2017-12-22T14:07:15.513Z,83.96
2017-12-22T14:13:19.077Z,84.24
2017-12-22T14:19:22.779Z,84.57
2017-12-22T14:25:27.048Z,84.90
2017-12-22T14:31:30.518Z,85.00
2017-12-22T14:37:34.005Z,86.24
2017-12-22T14:43:38.305Z,85.82
2017-12-22T14:49:41.788Z,84.85
2017-12-22T14:55:45.461Z,85.59
2017-12-22T15:01:49.045Z,85.68
2017-12-22T15:07:53.428Z,86.39
2017-12-22T15:13:56.946Z,86.95
2017-12-22T15:20:00.580Z,87.12
2017-12-22T15:26:04.097Z,87.28
2017-12-22T15:32:08.365Z,86.69
2017-12-22T15:38:11.978Z,87.04
2017-12-22T15:44:15.476Z,87.40
2017-12-22T15:50:19.726Z,87.74
2017-12-22T15:56:24.173Z,88.07
2017-12-22T16:02:27.812Z,88.22
2017-12-22T16:08:31.313Z,88.72
2017-12-22T16:14:34.806Z,88.79
2017-12-22T16:20:38.277Z,86.80
2017-12-22T16:26:41.812Z,85.98
2017-12-22T16:32:45.288Z,85.56
2017-12-22T16:38:48.757Z,86.00
2017-12-22T16:44:52.287Z,86.33
2017-12-22T16:50:55.847Z,86.62
2017-12-22T16:56:59.425Z,86.45
2017-12-22T17:03:02.940Z,86.53
2017-12-22T17:09:06.454Z,86.79
2017-12-22T17:15:10.047Z,88.10
2017-12-22T17:21:13.530Z,88.79
2017-12-22T17:27:17.029Z,89.43
2017-12-22T17:33:20.539Z,89.75
2017-12-22T17:39:24.125Z,89.94
2017-12-22T17:45:27.791Z,90.67
2017-12-22T17:51:32.849Z,90.61
2017-12-22T17:57:36.313Z,90.94
2017-12-22T18:03:39.961Z,90.68
2017-12-22T18:09:43.505Z,90.38
2017-12-22T18:15:46.999Z,89.96
2017-12-22T18:21:50.542Z,90.08
2017-12-22T18:27:54.258Z,90.53
2017-12-22T18:33:57.743Z,90.62
2017-12-22T18:40:01.249Z,90.33
2017-12-22T18:46:05.534Z,89.87
2017-12-22T18:52:09.054Z,89.57
2017-12-22T18:58:12.627Z,89.18
2017-12-22T19:04:16.953Z,89.45
2017-12-22T19:10:20.594Z,89.93
2017-12-22T19:16:24.157Z,90.12
2017-12-22T19:22:28.430Z,90.41
2017-12-22T19:28:31.940Z,90.19
2017-12-22T19:34:36.186Z,89.85
2017-12-22T19:40:39.651Z,90.06
2017-12-22T19:46:43.177Z,90.10
2017-12-22T19:52:47.046Z,90.30
2017-12-22T19:58:50.582Z,90.29
2017-12-22T20:04:54.786Z,90.09
2017-12-22T20:10:58.345Z,89.34
2017-12-22T20:17:01.833Z,88.53
2017-12-22T20:23:05.329Z,88.28
2017-12-22T20:29:08.791Z,88.13
2017-12-22T20:35:13.084Z,88.29
2017-12-22T20:41:17.365Z,88.40
2017-12-22T20:47:20.915Z,88.21
2017-12-22T20:53:25.180Z,88.46
2017-12-22T20:59:28.669Z,88.15
2017-12-22T21:05:32.159Z,88.44
2017-12-22T21:11:35.877Z,88.79
2017-12-22T21:17:39.344Z,88.61
2017-12-22T21:23:42.827Z,88.46
2017-12-22T21:29:46.354Z,88.64
2017-12-22T21:35:49.862Z,88.85
2017-12-22T21:41:53.423Z,88.77
2017-12-22T21:47:57.679Z,88.23
2017-12-22T21:54:01.267Z,87.82
2017-12-22T22:00:05.562Z,87.17
2017-12-22T22:06:09.248Z,87.36
2017-12-22T22:12:12.771Z,87.53
2017-12-22T22:18:16.371Z,86.62
2017-12-22T22:24:19.866Z,86.87
2017-12-22T22:30:24.570Z,86.97
2017-12-22T22:36:28.148Z,87.12
2017-12-22T22:42:31.622Z,87.06
2017-12-22T22:48:35.126Z,87.81
2017-12-22T22:54:38.616Z,87.48
2017-12-22T23:00:42.109Z,87.83
2017-12-22T23:06:46.387Z,87.20
2017-12-22T23:12:50.872Z,86.38
2017-12-22T23:18:54.774Z,86.25
2017-12-22T23:24:58.336Z,86.32
2017-12-22T23:31:01.921Z,86.12
2017-12-22T23:37:05.410Z,86.16
2017-12-22T23:43:08.926Z,86.81
2017-12-22T23:49:13.199Z,87.48
2017-12-22T23:55:16.802Z,87.57
